首页
METAR-TAF:

METAR-TAF

机场 :

Evanston-Uinta County Airport (Burns Field)

Evanston, 怀俄明州, 美国

纬度: 41-16-23N, 经度: 111-01-50W, 海拔: 2183米

当前天气观测

该预报发布于25分钟前的23:53 UTC
风速5节,风向南转西南
温度 -3°C
湿度 86%
气压 1016 hPa
能見度: 4.0公里
少量云层高于2800英尺
阴天层高于3600英尺
小雪, 轻雾

METAR: KEVW 132353Z AUTO 21005KT 2 1/2SM -SN BR FEW028 OVC036 M03/M05 A3000 RMK AO2 SNB23 SLP173 P0000 60000 T10331050 11011 21033 58022

时间: 17:18 (00:18 UTC)

预报

该预报发布于25分钟前的23:53 UTC
预报有效从14日的 00点(UTC)到 14日的 24点(UTC)
风速10节,风向西南
能見度: 4.8公里
散云层高于1200英尺
多云层高于3500英尺
阴天层高于5000英尺
小雪, 轻雾
从 14日的 0200点(UTC)
风速8节,风向西南
能見度: 1.6公里
散云层高于800英尺
阴天层高于2500英尺
小雪, 轻雾
从 14日的 0500点(UTC)
风速14节,风向西转西南,有时为21节阵风
能見度: 0.8公里
阴天层高于300英尺
雪, 雾
从 14日的 1600点(UTC)
风速17节,风向西,有时为24节阵风
能見度: 1.6公里
散云层高于800英尺
多云层高于1500英尺
阴天层高于2500英尺
小雪, 轻雾

TAF: KEVW 132353Z 1400/1424 22010KT 3SM -SN BR SCT012 BKN035 OVC050 FM140200 22008KT 1SM -SN BR SCT008 OVC025 FM140500 24014G21KT 1/2SM SN FG OVC003 FM141600 27017G24KT 1SM -SN BR SCT008 BKN015 OVC025

超过4000个机场的气象观测和天气预报(METAR&TAF报告)。

可查询的气象台以黄色和红色小点在地图上表示。

将鼠标移到小点上方,可查看气象台名称。

然后点击查看天气观测和预报。

如需切换地图:点击带黑十字的绿色按钮放大地图;点击带横线的绿色按钮缩小地图;或者点击绿色箭头查看邻近地区的地图。


METAR-TAF: